createdAt,value
2023-06-30T00:01:07.081Z,7.10
2023-06-30T00:03:35.676Z,9.00
2023-06-30T00:06:06.482Z,7.07
2023-06-30T00:08:35.682Z,9.17
2023-06-30T00:11:03.906Z,7.57
2023-06-30T00:13:37.091Z,8.27
2023-06-30T00:16:06.897Z,9.00
2023-06-30T00:18:35.152Z,7.27
2023-06-30T00:21:04.885Z,9.07
2023-06-30T00:23:33.356Z,8.87
2023-06-30T00:28:29.031Z,9.63
2023-06-30T00:30:58.648Z,10.50
2023-06-30T00:33:28.315Z,12.10
2023-06-30T00:35:56.448Z,11.30
2023-06-30T00:38:24.742Z,8.07
2023-06-30T00:40:56.174Z,11.40
2023-06-30T00:43:25.389Z,11.03
2023-06-30T00:45:53.598Z,10.67
2023-06-30T00:48:24.968Z,11.43
2023-06-30T00:51:04.146Z,14.60
2023-06-30T00:53:34.788Z,11.83
2023-06-30T00:56:03.075Z,9.17
2023-06-30T00:58:32.702Z,8.37
2023-06-30T01:01:08.145Z,9.27
2023-06-30T01:03:47.471Z,10.00
2023-06-30T01:06:38.858Z,10.60
2023-06-30T01:09:16.745Z,9.53
2023-06-30T01:11:46.316Z,10.77
2023-06-30T01:14:18.694Z,11.77
2023-06-30T01:16:52.403Z,8.17
2023-06-30T01:19:32.432Z,8.80
2023-06-30T01:22:07.192Z,9.03
2023-06-30T01:24:41.579Z,8.23
2023-06-30T01:27:13.703Z,9.20
2023-06-30T01:29:47.556Z,9.07
2023-06-30T01:32:18.613Z,8.63
2023-06-30T01:34:48.569Z,10.03
2023-06-30T01:37:16.742Z,9.63
2023-06-30T01:39:46.216Z,9.67
2023-06-30T01:42:15.768Z,10.93
2023-06-30T01:44:46.899Z,10.53
2023-06-30T01:47:20.288Z,9.70
2023-06-30T01:49:54.092Z,9.87
2023-06-30T01:52:22.659Z,10.77
2023-06-30T01:54:50.856Z,8.50
2023-06-30T01:57:20.337Z,10.07
2023-06-30T01:59:49.787Z,13.53
2023-06-30T02:02:19.451Z,10.53
2023-06-30T02:04:47.647Z,11.27
2023-06-30T02:07:18.750Z,8.63
2023-06-30T02:09:49.190Z,10.80
2023-06-30T02:12:18.275Z,10.43
2023-06-30T02:14:50.202Z,14.40
2023-06-30T02:17:30.576Z,9.97
2023-06-30T02:19:58.757Z,9.20
2023-06-30T02:22:30.710Z,10.00
2023-06-30T02:27:47.475Z,9.27
2023-06-30T02:30:16.744Z,9.97
2023-06-30T02:32:45.334Z,10.73
2023-06-30T02:35:15.805Z,10.10
2023-06-30T02:37:48.182Z,9.20
2023-06-30T02:40:19.144Z,10.70
2023-06-30T02:42:49.773Z,9.80
2023-06-30T02:45:19.646Z,12.90
2023-06-30T02:47:48.302Z,10.63
2023-06-30T02:50:18.587Z,10.93
2023-06-30T02:52:53.015Z,8.63
2023-06-30T02:55:22.691Z,11.60
2023-06-30T02:57:51.317Z,12.93
2023-06-30T03:00:20.261Z,12.37
2023-06-30T03:02:57.031Z,12.83
2023-06-30T03:05:26.802Z,11.17
2023-06-30T03:08:03.853Z,10.50
2023-06-30T03:10:37.545Z,9.90
2023-06-30T03:13:05.972Z,9.43
2023-06-30T03:15:37.978Z,10.90
2023-06-30T03:18:07.347Z,10.83
2023-06-30T03:20:50.742Z,12.07
2023-06-30T03:23:20.842Z,10.10
2023-06-30T03:25:49.669Z,11.00
2023-06-30T03:28:17.945Z,9.83
2023-06-30T03:30:47.166Z,9.63
2023-06-30T03:33:17.631Z,11.30
2023-06-30T03:35:48.287Z,13.00
2023-06-30T03:38:18.958Z,13.13
2023-06-30T03:40:53.496Z,10.80
2023-06-30T03:43:24.910Z,13.70
2023-06-30T03:45:54.054Z,11.43
2023-06-30T03:48:22.766Z,12.43
2023-06-30T03:50:57.019Z,10.97
2023-06-30T03:53:25.900Z,11.80
2023-06-30T03:55:55.646Z,14.50
2023-06-30T03:58:24.083Z,8.83
2023-06-30T04:01:06.093Z,12.83
2023-06-30T04:03:39.094Z,11.77
2023-06-30T04:06:08.738Z,10.17
2023-06-30T04:08:37.172Z,9.50
2023-06-30T04:11:08.475Z,12.73
2023-06-30T04:13:36.677Z,10.23
2023-06-30T04:16:05.347Z,14.30
2023-06-30T04:18:35.981Z,10.40
2023-06-30T04:21:25.464Z,12.97
2023-06-30T04:23:56.876Z,11.03
2023-06-30T04:26:26.443Z,12.90
2023-06-30T04:28:57.706Z,11.33
2023-06-30T04:34:17.643Z,11.00
2023-06-30T04:36:47.615Z,13.30
2023-06-30T04:39:16.110Z,14.43
2023-06-30T04:41:48.314Z,13.63
2023-06-30T04:44:21.676Z,11.57
2023-06-30T04:46:51.265Z,11.57
2023-06-30T04:49:20.939Z,11.60
2023-06-30T04:51:50.647Z,15.03
2023-06-30T04:54:22.774Z,12.27
2023-06-30T04:57:13.940Z,11.43
2023-06-30T04:59:45.923Z,11.43
2023-06-30T05:02:14.153Z,12.73
2023-06-30T05:04:42.858Z,13.47
2023-06-30T05:07:14.227Z,12.40
2023-06-30T05:09:52.646Z,14.77
2023-06-30T05:12:26.592Z,12.63
2023-06-30T05:15:39.246Z,13.20
2023-06-30T05:18:42.437Z,15.10
2023-06-30T05:24:17.025Z,12.57
2023-06-30T05:27:00.083Z,16.23
2023-06-30T05:40:49.702Z,10.87
2023-06-30T05:43:48.381Z,12.43
2023-06-30T05:46:21.638Z,14.33
2023-06-30T05:48:49.898Z,12.37
2023-06-30T05:51:41.319Z,12.03
2023-06-30T05:57:35.884Z,11.80
2023-06-30T06:00:04.385Z,11.03
2023-06-30T06:02:33.872Z,14.00
2023-06-30T06:05:05.148Z,13.13
2023-06-30T06:07:48.583Z,11.90
2023-06-30T06:11:20.161Z,11.80
2023-06-30T06:13:52.226Z,12.00
2023-06-30T06:16:23.146Z,13.63
2023-06-30T06:18:53.185Z,12.33
2023-06-30T06:21:51.053Z,11.03
2023-06-30T06:24:23.990Z,12.23
2023-06-30T06:26:54.865Z,12.17
2023-06-30T06:29:27.985Z,12.80
2023-06-30T06:31:57.771Z,13.37
2023-06-30T06:34:27.301Z,11.17
2023-06-30T06:36:56.747Z,12.70
2023-06-30T06:39:34.059Z,10.80
2023-06-30T06:42:25.975Z,15.17
2023-06-30T06:48:27.289Z,14.63
2023-06-30T06:51:08.518Z,12.30
2023-06-30T06:53:49.644Z,12.93
2023-06-30T06:56:18.981Z,13.67
2023-06-30T06:58:57.536Z,14.90
2023-06-30T07:01:31.871Z,14.80
2023-06-30T07:07:17.256Z,21.50
2023-06-30T07:09:47.932Z,17.67
2023-06-30T07:12:16.968Z,16.33
2023-06-30T07:14:49.392Z,18.90
2023-06-30T07:17:21.672Z,17.83
2023-06-30T07:19:54.095Z,17.17
2023-06-30T07:22:26.206Z,16.90
2023-06-30T07:25:12.931Z,18.30
2023-06-30T07:27:41.341Z,19.97
2023-06-30T07:30:23.111Z,23.23
2023-06-30T07:33:00.240Z,18.27
2023-06-30T07:35:32.266Z,21.67
2023-06-30T07:38:00.846Z,19.50
2023-06-30T07:40:51.094Z,20.90
2023-06-30T07:43:23.310Z,20.67
2023-06-30T07:45:51.538Z,19.50
2023-06-30T07:48:34.191Z,17.10
2023-06-30T07:51:11.667Z,18.70
2023-06-30T07:54:13.130Z,20.23
2023-06-30T07:56:42.321Z,18.83
2023-06-30T07:59:12.077Z,18.97
2023-06-30T08:01:47.688Z,19.97
2023-06-30T08:04:18.967Z,22.20
2023-06-30T08:06:50.856Z,17.73
2023-06-30T08:09:19.183Z,21.87
2023-06-30T08:11:49.325Z,18.03
2023-06-30T08:14:20.420Z,19.77
2023-06-30T08:16:50.020Z,21.87
2023-06-30T08:19:47.597Z,21.50
2023-06-30T08:22:17.678Z,20.80
2023-06-30T08:25:24.536Z,21.73
2023-06-30T08:27:55.154Z,24.70
2023-06-30T08:30:29.705Z,23.37
2023-06-30T08:33:00.376Z,21.50
2023-06-30T08:35:30.172Z,20.50
2023-06-30T08:37:58.495Z,22.87
2023-06-30T08:40:32.893Z,23.80
2023-06-30T08:43:02.472Z,24.50
2023-06-30T08:45:31.831Z,24.17
2023-06-30T08:48:31.805Z,24.37
2023-06-30T08:51:04.454Z,22.60
2023-06-30T08:53:46.089Z,22.27
2023-06-30T08:56:33.046Z,27.33
2023-06-30T09:02:54.397Z,23.63
2023-06-30T09:05:24.408Z,24.70
2023-06-30T09:07:57.899Z,25.53
2023-06-30T09:10:35.045Z,24.57
2023-06-30T09:13:05.822Z,28.97
2023-06-30T09:15:36.707Z,25.73
2023-06-30T09:18:07.429Z,24.77
2023-06-30T09:20:41.410Z,46.00
2023-06-30T09:23:20.399Z,25.63
2023-06-30T09:26:16.021Z,25.00
2023-06-30T09:29:32.777Z,23.77
2023-06-30T09:32:28.014Z,27.17
2023-06-30T09:34:58.884Z,27.80
2023-06-30T09:37:59.390Z,28.80
2023-06-30T09:40:30.802Z,28.08
2023-06-30T09:43:00.405Z,26.33
2023-06-30T09:45:28.568Z,26.07
2023-06-30T09:48:13.636Z,29.20
2023-06-30T09:50:51.677Z,27.13
2023-06-30T09:53:23.034Z,26.90
2023-06-30T09:56:41.381Z,27.23
2023-06-30T09:59:13.156Z,27.63
2023-06-30T10:01:45.068Z,27.97
2023-06-30T10:04:15.760Z,28.17
2023-06-30T10:06:44.026Z,30.20
2023-06-30T10:09:36.432Z,28.90
2023-06-30T10:12:06.723Z,20.40
2023-06-30T10:14:40.469Z,17.50
2023-06-30T10:17:11.170Z,10.90
2023-06-30T10:19:41.551Z,7.13
2023-06-30T10:22:10.390Z,8.30
2023-06-30T10:28:15.372Z,4.23
2023-06-30T10:33:52.317Z,2.90
2023-06-30T10:36:22.907Z,3.13
2023-06-30T10:38:58.610Z,2.70
2023-06-30T10:41:28.026Z,2.83
2023-06-30T10:44:08.642Z,4.67
2023-06-30T10:46:48.769Z,2.40
2023-06-30T10:49:30.612Z,3.80
2023-06-30T10:52:06.486Z,2.00
2023-06-30T10:54:43.456Z,3.17
2023-06-30T11:00:49.202Z,1.40
2023-06-30T11:03:19.163Z,1.40
2023-06-30T11:06:39.155Z,1.93
2023-06-30T11:10:19.214Z,2.30
2023-06-30T11:13:26.539Z,1.60
2023-06-30T11:16:03.974Z,3.27
2023-06-30T11:18:47.774Z,2.60
2023-06-30T11:21:21.111Z,1.93
2023-06-30T11:23:58.197Z,1.57
2023-06-30T11:26:43.607Z,1.50
2023-06-30T11:29:25.785Z,1.83
2023-06-30T11:32:19.776Z,2.23
2023-06-30T11:34:53.300Z,1.70
2023-06-30T11:37:59.956Z,1.80
2023-06-30T11:40:35.221Z,1.60
2023-06-30T11:43:52.740Z,3.07
2023-06-30T11:46:21.716Z,1.67
2023-06-30T11:49:20.596Z,3.33
2023-06-30T11:52:49.865Z,1.73
2023-06-30T11:56:10.335Z,1.70
2023-06-30T11:58:54.131Z,1.67
2023-06-30T12:04:58.745Z,2.53
2023-06-30T12:11:20.715Z,1.70
2023-06-30T12:14:21.731Z,2.13
2023-06-30T12:17:03.677Z,1.70
2023-06-30T12:19:48.775Z,1.77
2023-06-30T12:25:56.081Z,1.87
2023-06-30T12:31:40.345Z,1.60
2023-06-30T12:34:09.493Z,1.50
2023-06-30T12:36:55.867Z,1.87
2023-06-30T12:39:44.428Z,1.97
2023-06-30T12:42:36.996Z,1.73
2023-06-30T12:45:43.053Z,1.43
2023-06-30T12:49:02.537Z,1.70
2023-06-30T12:51:34.948Z,3.17
2023-06-30T12:54:51.962Z,2.50
2023-06-30T12:57:08.826Z,2.27
2023-06-30T13:00:45.800Z,1.63
2023-06-30T13:03:49.605Z,1.60
2023-06-30T13:06:45.598Z,1.80
2023-06-30T13:09:31.953Z,2.27
2023-06-30T13:12:04.856Z,1.40
2023-06-30T13:18:49.563Z,1.60
2023-06-30T13:21:55.025Z,2.13
2023-06-30T13:25:09.155Z,2.20
2023-06-30T13:28:23.082Z,2.00
2023-06-30T13:30:58.249Z,2.33
2023-06-30T13:33:38.403Z,2.10
2023-06-30T13:36:10.264Z,3.10
2023-06-30T13:38:48.402Z,2.43
2023-06-30T13:41:18.010Z,2.60
2023-06-30T13:43:47.472Z,3.13
2023-06-30T13:46:19.125Z,2.97
2023-06-30T13:48:49.725Z,3.47
2023-06-30T13:51:22.907Z,3.43
2023-06-30T13:53:53.555Z,4.87
2023-06-30T13:56:25.776Z,7.30
2023-06-30T13:58:55.010Z,3.53
2023-06-30T14:01:29.496Z,3.53
2023-06-30T14:03:59.974Z,4.93
2023-06-30T14:06:43.453Z,3.67
2023-06-30T14:09:15.915Z,3.87
2023-06-30T14:11:49.403Z,3.80
2023-06-30T14:14:24.232Z,5.63
2023-06-30T14:16:55.816Z,5.13
2023-06-30T14:19:36.025Z,3.87
2023-06-30T14:22:05.179Z,5.00
2023-06-30T14:24:33.982Z,5.23
2023-06-30T14:27:06.808Z,4.27
2023-06-30T14:29:52.271Z,5.40
2023-06-30T14:32:30.581Z,5.07
2023-06-30T14:35:02.783Z,5.83
2023-06-30T14:37:35.439Z,4.63
2023-06-30T14:40:05.789Z,7.70
2023-06-30T14:42:36.481Z,8.27
2023-06-30T14:45:06.203Z,4.30
2023-06-30T14:47:37.460Z,5.67
2023-06-30T14:50:10.104Z,4.70
2023-06-30T14:52:39.445Z,5.53
2023-06-30T14:55:33.593Z,4.33
2023-06-30T14:58:06.462Z,5.97
2023-06-30T15:04:39.020Z,5.67
2023-06-30T15:07:47.968Z,4.20
2023-06-30T15:10:57.244Z,6.87
2023-06-30T15:13:30.757Z,5.63
2023-06-30T15:16:19.232Z,5.60
2023-06-30T15:19:06.463Z,5.10
2023-06-30T15:22:27.469Z,3.73
2023-06-30T15:25:02.480Z,3.30
2023-06-30T15:27:38.543Z,5.03
2023-06-30T15:30:19.660Z,4.50
2023-06-30T15:32:52.877Z,5.30
2023-06-30T15:35:40.318Z,5.97
2023-06-30T15:39:09.514Z,5.37
2023-06-30T15:48:21.747Z,5.37
2023-06-30T15:50:51.524Z,4.23
2023-06-30T15:53:24.289Z,4.17
2023-06-30T15:55:54.141Z,6.13
2023-06-30T15:58:26.756Z,8.03
2023-06-30T16:01:11.079Z,6.43
2023-06-30T16:03:44.596Z,6.00
2023-06-30T16:06:14.961Z,4.13
2023-06-30T16:08:46.588Z,4.80
2023-06-30T16:11:33.457Z,5.80
2023-06-30T16:14:06.722Z,3.37
2023-06-30T16:20:50.022Z,4.03
2023-06-30T16:34:05.782Z,5.67
2023-06-30T16:46:49.309Z,5.40
2023-06-30T16:49:19.686Z,3.83
2023-06-30T16:51:52.532Z,3.73
2023-06-30T16:54:25.538Z,3.67
2023-06-30T16:57:34.926Z,3.93
2023-06-30T17:00:06.650Z,2.90
2023-06-30T17:02:36.165Z,6.83
2023-06-30T17:05:09.584Z,6.50
2023-06-30T17:07:39.422Z,5.03
2023-06-30T17:10:09.568Z,5.00
2023-06-30T17:12:41.262Z,5.93
2023-06-30T17:15:11.982Z,3.10
2023-06-30T17:17:45.077Z,4.67
2023-06-30T17:20:15.681Z,3.57
2023-06-30T17:22:44.672Z,4.33
2023-06-30T17:25:14.679Z,3.23
2023-06-30T17:27:44.665Z,4.30
2023-06-30T17:30:14.779Z,4.87
2023-06-30T17:32:44.072Z,5.07
2023-06-30T17:35:14.609Z,5.50
2023-06-30T17:37:44.747Z,4.10
2023-06-30T17:40:15.225Z,4.23
2023-06-30T17:42:44.435Z,4.37
2023-06-30T17:45:14.831Z,3.40
2023-06-30T17:47:43.584Z,3.37
2023-06-30T17:50:18.724Z,5.47
2023-06-30T17:52:50.066Z,5.40
2023-06-30T17:55:19.291Z,4.97
2023-06-30T17:57:54.117Z,4.63
2023-06-30T18:00:23.264Z,3.13
2023-06-30T18:02:54.261Z,4.57
2023-06-30T18:05:25.486Z,4.40
2023-06-30T18:07:58.155Z,11.73
2023-06-30T18:10:27.335Z,7.47
2023-06-30T18:13:00.701Z,8.73
2023-06-30T18:15:47.283Z,4.80
2023-06-30T18:18:24.289Z,5.50
2023-06-30T18:20:55.704Z,5.97
2023-06-30T18:23:24.974Z,4.83
2023-06-30T18:25:56.106Z,4.20
2023-06-30T18:28:26.360Z,4.13
2023-06-30T18:30:55.633Z,4.90
2023-06-30T18:33:24.874Z,4.90
2023-06-30T18:35:56.696Z,3.73
2023-06-30T18:38:28.011Z,5.53
2023-06-30T18:41:02.955Z,5.63
2023-06-30T18:43:32.926Z,5.57
2023-06-30T18:46:18.912Z,7.50
2023-06-30T18:48:48.995Z,5.23
2023-06-30T18:51:19.833Z,4.90
2023-06-30T18:57:15.632Z,6.03
2023-06-30T18:59:50.206Z,7.27
2023-06-30T19:02:21.176Z,5.20
2023-06-30T19:04:49.786Z,7.43
2023-06-30T19:07:19.572Z,4.03
2023-06-30T19:09:48.003Z,4.90
2023-06-30T19:12:16.395Z,7.07
2023-06-30T19:14:44.830Z,5.33
2023-06-30T19:17:13.283Z,5.77
2023-06-30T19:19:43.601Z,6.63
2023-06-30T19:22:11.923Z,6.63
2023-06-30T19:24:43.639Z,6.13
2023-06-30T19:27:17.274Z,4.87
2023-06-30T19:29:45.564Z,4.57
2023-06-30T19:32:15.016Z,5.03
2023-06-30T19:34:44.393Z,6.10
2023-06-30T19:37:15.053Z,4.77
